createdAt,value
2019-03-09T00:03:56.788Z,9.63
2019-03-09T00:10:02.715Z,9.57
2019-03-09T00:16:08.464Z,9.61
2019-03-09T00:22:14.394Z,9.65
2019-03-09T00:28:25.606Z,9.72
2019-03-09T00:34:31.382Z,9.70
2019-03-09T00:40:37.288Z,9.68
2019-03-09T00:46:43.047Z,9.55
2019-03-09T00:52:48.850Z,9.46
2019-03-09T00:58:54.639Z,9.36
2019-03-09T01:05:00.506Z,9.28
2019-03-09T01:11:06.272Z,9.23
2019-03-09T01:17:12.306Z,9.13
2019-03-09T01:23:18.814Z,9.07
2019-03-09T01:29:24.846Z,9.00
2019-03-09T01:35:30.961Z,9.00
2019-03-09T01:41:36.819Z,9.01
2019-03-09T01:47:42.775Z,8.94
2019-03-09T01:53:48.577Z,8.95
2019-03-09T01:59:54.654Z,8.89
2019-03-09T02:06:00.403Z,8.80
2019-03-09T02:12:06.452Z,8.77
2019-03-09T02:18:12.652Z,8.74
2019-03-09T02:24:18.639Z,8.74
2019-03-09T02:30:24.592Z,8.74
2019-03-09T02:36:30.819Z,8.73
2019-03-09T02:42:37.152Z,8.71
2019-03-09T02:48:43.103Z,8.66
2019-03-09T02:54:49.694Z,8.70
2019-03-09T03:01:17.624Z,8.69
2019-03-09T03:07:48.896Z,8.76
2019-03-09T03:13:54.754Z,8.71
2019-03-09T03:20:00.657Z,8.75
2019-03-09T03:26:06.748Z,8.69
2019-03-09T03:32:12.663Z,8.77
2019-03-09T03:38:18.424Z,8.83
2019-03-09T03:44:24.650Z,8.84
2019-03-09T03:50:30.601Z,8.88
2019-03-09T03:56:36.476Z,8.89
2019-03-09T04:02:42.291Z,8.94
2019-03-09T04:08:48.569Z,8.99
2019-03-09T04:14:54.606Z,9.00
2019-03-09T04:21:02.030Z,9.03
2019-03-09T04:27:07.992Z,9.00
2019-03-09T04:33:14.438Z,9.03
2019-03-09T04:39:20.791Z,9.10
2019-03-09T04:45:27.104Z,9.11
2019-03-09T04:51:33.486Z,9.17
2019-03-09T04:57:39.781Z,9.23
2019-03-09T05:03:46.062Z,9.26
2019-03-09T05:10:29.192Z,9.32
2019-03-09T05:16:35.001Z,9.38
2019-03-09T05:22:40.835Z,9.43
2019-03-09T05:28:47.214Z,9.47
2019-03-09T05:34:53.113Z,9.51
2019-03-09T05:40:58.863Z,9.50
2019-03-09T05:47:04.800Z,9.55
2019-03-09T05:53:17.555Z,9.52
2019-03-09T05:59:23.362Z,9.47
2019-03-09T06:05:45.154Z,9.44
2019-03-09T06:11:51.034Z,9.34
2019-03-09T06:17:56.859Z,9.33
2019-03-09T06:24:02.609Z,9.33
2019-03-09T06:30:08.737Z,9.35
2019-03-09T06:37:12.403Z,9.46
2019-03-09T06:43:18.301Z,9.58
2019-03-09T06:49:25.195Z,9.67
2019-03-09T06:55:31.218Z,9.73
2019-03-09T07:01:37.424Z,9.83
2019-03-09T07:07:43.751Z,9.91
2019-03-09T07:13:53.191Z,9.94
2019-03-09T07:19:57.703Z,9.98
2019-03-09T07:26:03.662Z,10.02
2019-03-09T07:32:09.565Z,10.07
2019-03-09T07:44:32.542Z,10.13
2019-03-09T07:50:38.759Z,10.17
2019-03-09T07:56:44.554Z,10.23
2019-03-09T08:02:50.448Z,10.31
2019-03-09T08:08:56.186Z,10.40
2019-03-09T08:15:03.242Z,10.42
2019-03-09T08:21:09.101Z,10.46
2019-03-09T08:27:15.344Z,10.46
2019-03-09T08:33:21.255Z,10.51
2019-03-09T08:39:27.355Z,10.55
2019-03-09T08:45:33.357Z,10.62
2019-03-09T08:51:39.366Z,10.69
2019-03-09T08:57:46.178Z,10.72
2019-03-09T09:03:52.710Z,10.82
2019-03-09T09:09:58.611Z,10.92
2019-03-09T09:16:04.383Z,10.99
2019-03-09T09:22:10.671Z,11.07
2019-03-09T09:28:16.642Z,11.20
2019-03-09T09:34:23.173Z,11.22
2019-03-09T09:40:29.242Z,11.29
2019-03-09T09:46:35.656Z,11.42
2019-03-09T09:52:41.837Z,11.49
2019-03-09T09:58:47.569Z,11.60
2019-03-09T10:04:53.487Z,11.67
2019-03-09T10:10:59.814Z,11.66
2019-03-09T10:17:05.639Z,11.65
2019-03-09T10:23:11.418Z,11.64
2019-03-09T10:29:17.226Z,11.61
2019-03-09T10:35:24.007Z,11.57
2019-03-09T10:41:30.241Z,11.61
2019-03-09T10:47:36.421Z,11.74
2019-03-09T10:53:42.545Z,11.82
2019-03-09T10:59:48.666Z,11.97
2019-03-09T11:05:54.935Z,12.10
2019-03-09T11:12:01.471Z,12.16
2019-03-09T11:18:07.868Z,12.29
2019-03-09T11:24:14.045Z,12.35
2019-03-09T11:30:23.229Z,12.40
2019-03-09T11:36:29.153Z,12.49
2019-03-09T11:42:35.025Z,12.47
2019-03-09T11:48:43.063Z,12.64
2019-03-09T11:54:49.003Z,12.77
2019-03-09T12:00:55.089Z,12.95
2019-03-09T12:07:02.125Z,13.04
2019-03-09T12:13:08.196Z,13.25
2019-03-09T12:19:13.994Z,13.41
2019-03-09T12:25:20.229Z,13.57
2019-03-09T12:31:26.558Z,13.65
2019-03-09T12:37:32.304Z,13.59
2019-03-09T12:43:38.413Z,13.73
2019-03-09T12:49:44.454Z,13.73
2019-03-09T12:55:50.533Z,13.72
2019-03-09T13:01:56.267Z,13.72
2019-03-09T13:08:02.323Z,13.80
2019-03-09T13:14:08.342Z,13.77
2019-03-09T13:20:14.215Z,13.93
2019-03-09T13:26:20.104Z,13.75
2019-03-09T13:32:25.912Z,13.40
2019-03-09T13:38:31.660Z,13.11
2019-03-09T13:44:37.425Z,12.94
2019-03-09T13:50:43.275Z,12.65
2019-03-09T13:56:49.093Z,12.25
2019-03-09T14:02:55.021Z,12.24
2019-03-09T14:09:01.126Z,12.13
2019-03-09T14:15:08.033Z,12.38
2019-03-09T14:21:14.263Z,12.34
2019-03-09T14:27:20.096Z,12.34
2019-03-09T14:33:25.877Z,12.42
2019-03-09T14:39:31.779Z,12.02
2019-03-09T14:45:37.541Z,11.80
2019-03-09T14:51:43.321Z,11.60
2019-03-09T14:57:49.297Z,9.56
2019-03-09T15:03:55.064Z,9.06
2019-03-09T15:10:00.982Z,9.68
2019-03-09T15:16:06.849Z,10.09
2019-03-09T15:22:12.822Z,10.41
2019-03-09T15:28:18.604Z,10.37
2019-03-09T15:34:24.384Z,10.34
2019-03-09T15:40:30.151Z,10.40
2019-03-09T15:46:35.916Z,10.44
2019-03-09T15:52:41.769Z,10.46
2019-03-09T15:58:47.551Z,10.21
2019-03-09T16:04:53.365Z,10.54
2019-03-09T16:10:59.288Z,10.41
2019-03-09T16:17:08.481Z,10.41
2019-03-09T16:23:14.306Z,10.47
2019-03-09T16:29:20.091Z,8.87
2019-03-09T16:35:26.418Z,8.14
2019-03-09T16:41:33.206Z,7.94
2019-03-09T16:47:39.026Z,7.99
2019-03-09T16:53:44.832Z,8.05
2019-03-09T16:59:51.007Z,8.09
2019-03-09T17:05:57.122Z,8.09
2019-03-09T17:12:02.957Z,8.17
2019-03-09T17:18:08.738Z,8.21
2019-03-09T17:24:14.550Z,8.33
2019-03-09T17:30:20.351Z,8.42
2019-03-09T17:36:26.106Z,8.46
2019-03-09T17:42:31.936Z,8.55
2019-03-09T17:48:37.724Z,8.59
2019-03-09T17:54:43.916Z,8.59
2019-03-09T18:00:49.745Z,8.64
2019-03-09T18:06:55.523Z,8.65
2019-03-09T18:13:01.380Z,8.69
2019-03-09T18:19:07.175Z,8.74
2019-03-09T18:25:12.932Z,8.70
2019-03-09T18:31:18.696Z,8.69
2019-03-09T18:37:24.488Z,8.76
2019-03-09T18:43:30.288Z,8.77
2019-03-09T18:49:36.305Z,8.74
2019-03-09T18:55:42.375Z,8.75
2019-03-09T19:01:48.160Z,8.78
2019-03-09T19:07:53.956Z,8.77
2019-03-09T19:13:59.774Z,8.74
2019-03-09T19:20:06.286Z,8.73
2019-03-09T19:26:12.062Z,8.71
2019-03-09T19:32:17.954Z,8.70
2019-03-09T19:38:23.785Z,8.72
2019-03-09T19:44:29.610Z,8.71
2019-03-09T19:50:36.040Z,8.69
2019-03-09T19:56:41.967Z,8.69
2019-03-09T20:02:47.817Z,8.69
2019-03-09T20:08:53.601Z,8.68
2019-03-09T20:14:59.393Z,8.68
2019-03-09T20:21:05.350Z,8.70
2019-03-09T20:27:11.230Z,8.76
2019-03-09T20:33:17.125Z,8.81
2019-03-09T20:39:23.026Z,8.84
2019-03-09T20:45:28.943Z,8.88
2019-03-09T20:51:37.363Z,8.88
2019-03-09T20:57:43.271Z,8.87
2019-03-09T21:03:49.209Z,8.85
2019-03-09T21:09:55.172Z,8.82
2019-03-09T21:16:01.256Z,8.78
2019-03-09T21:22:07.166Z,8.74
2019-03-09T21:28:13.006Z,8.70
2019-03-09T21:34:19.081Z,8.71
2019-03-09T21:40:25.076Z,8.74
2019-03-09T21:46:30.858Z,8.71
2019-03-09T21:52:36.671Z,8.75
2019-03-09T21:58:42.496Z,8.78
2019-03-09T22:04:48.272Z,8.83
2019-03-09T22:10:54.094Z,8.88
2019-03-09T22:16:59.915Z,8.91
2019-03-09T22:23:05.686Z,8.93
2019-03-09T22:29:11.557Z,8.95
2019-03-09T22:35:17.894Z,8.95
2019-03-09T22:41:23.673Z,9.00
2019-03-09T22:47:29.413Z,9.00
2019-03-09T22:53:35.215Z,9.03
2019-03-09T22:59:41.004Z,9.07
2019-03-09T23:05:46.792Z,9.11
2019-03-09T23:11:52.835Z,9.19
2019-03-09T23:17:58.959Z,9.25
2019-03-09T23:24:04.838Z,9.33
2019-03-09T23:30:16.136Z,9.39
2019-03-09T23:36:22.188Z,9.37
2019-03-09T23:42:28.110Z,9.29
2019-03-09T23:48:34.552Z,9.23
2019-03-09T23:54:40.809Z,9.16
